Time;durP1;ratioP1;P1;durP2;ratioP2;P2;SDS_P1;SDS_P2;PMS_P1;PMS_P2;Temp;Humidity;BMP_temperature;BMP_pressure;BME280_temperature;BME280_humidity;BME280_pressure;Samples;Min_cycle;Max_cycle;Signal;HPM_P1;HPM_P2
2021/12/13 10:04:39;;;;;;;34.33;25.63;;;10.10;99.90;;;;;;5103177;27;21799;-77
2021/12/13 10:07:11;;;;;;;30.73;24.37;;;10.00;99.90;;;;;;5106062;28;20568;-76
2021/12/13 10:09:42;;;;;;;33.40;26.60;;;10.10;99.90;;;;;;5106714;28;20168;-77
2021/12/13 10:12:20;;;;;;;28.63;25.27;;;10.10;99.90;;;;;;5103919;28;20048;-79
2021/12/13 10:15:07;;;;;;;30.97;24.33;;;10.20;99.90;;;;;;5104178;28;20067;-77
2021/12/13 10:17:38;;;;;;;30.73;24.27;;;10.20;99.90;;;;;;5104483;28;20043;-76
2021/12/13 10:20:13;;;;;;;27.87;24.33;;;10.30;99.90;;;;;;5104394;28;20397;-75
2021/12/13 10:22:39;;;;;;;24.07;20.73;;;10.30;99.90;;;;;;5103933;28;20060;-73
2021/12/13 10:25:22;;;;;;;25.87;22.17;;;10.40;99.90;;;;;;5104423;28;20087;-73
2021/12/13 10:27:49;;;;;;;24.97;21.20;;;10.50;99.90;;;;;;5103494;28;20446;-70
2021/12/13 10:30:27;;;;;;;24.30;19.83;;;10.50;99.90;;;;;;5104008;28;20044;-69
2021/12/13 10:32:53;;;;;;;24.20;19.80;;;10.60;99.90;;;;;;5103116;28;20194;-69
2021/12/13 10:35:26;;;;;;;27.63;20.77;;;10.60;99.90;;;;;;5105433;28;20042;-69
2021/12/13 10:37:56;;;;;;;21.93;19.40;;;10.60;99.90;;;;;;5103971;28;20487;-77
2021/12/13 10:40:27;;;;;;;22.53;19.20;;;10.70;99.90;;;;;;5103195;28;20465;-75
2021/12/13 10:43:08;;;;;;;23.02;18.83;;;10.70;99.90;;;;;;5102970;28;20392;-76
2021/12/13 10:45:42;;;;;;;23.77;19.17;;;10.70;99.90;;;;;;5103128;28;20050;-76
2021/12/13 10:48:12;;;;;;;23.30;17.40;;;10.70;99.90;;;;;;5104307;28;20036;-76
2021/12/13 10:50:53;;;;;;;20.83;17.60;;;10.80;99.90;;;;;;5103374;28;20047;-73
2021/12/13 10:53:22;;;;;;;20.33;17.77;;;10.80;99.90;;;;;;5103887;28;20463;-72
2021/12/13 10:55:52;;;;;;;20.57;16.60;;;10.90;99.90;;;;;;5103150;28;20407;-73
2021/12/13 10:58:22;;;;;;;24.50;19.93;;;10.90;99.90;;;;;;5103428;28;20044;-71
2021/12/13 11:01:06;;;;;;;20.30;17.33;;;11.00;99.90;;;;;;5102184;28;20134;-70
2021/12/13 11:03:32;;;;;;;25.73;18.57;;;11.10;99.90;;;;;;5102510;28;20163;-71
2021/12/13 11:05:59;;;;;;;21.90;17.87;;;11.10;99.90;;;;;;5104381;28;20044;-71
2021/12/13 11:08:26;;;;;;;23.93;21.50;;;11.20;99.90;;;;;;5103530;28;20032;-72
2021/12/13 11:10:59;;;;;;;20.87;17.03;;;11.20;99.90;;;;;;5103118;28;20093;-71
2021/12/13 11:13:32;;;;;;;20.07;17.37;;;11.20;99.90;;;;;;5104086;28;20058;-74
2021/12/13 11:16:08;;;;;;;22.70;20.27;;;11.20;99.90;;;;;;5087922;28;20404;-70
2021/12/13 11:18:34;;;;;;;21.20;16.93;;;11.30;99.90;;;;;;5090423;28;20048;-73
2021/12/13 11:21:10;;;;;;;21.67;16.37;;;11.30;99.90;;;;;;5089740;28;20051;-72
2021/12/13 11:23:37;;;;;;;22.10;16.67;;;11.40;99.90;;;;;;5089743;28;20055;-76
2021/12/13 11:26:06;;;;;;;18.87;16.13;;;11.40;99.90;;;;;;5088695;28;20052;-73
2021/12/13 11:28:33;;;;;;;23.40;17.03;;;11.40;99.90;;;;;;5089804;28;20095;-73
2021/12/13 11:31:07;;;;;;;19.60;16.40;;;11.40;99.90;;;;;;5090659;28;20051;-73
2021/12/13 11:33:39;;;;;;;22.60;17.03;;;11.40;99.90;;;;;;5090940;28;20109;-72
2021/12/13 11:36:10;;;;;;;19.57;16.80;;;11.30;99.90;;;;;;5088481;28;20131;-72
2021/12/13 11:39:13;;;;;;;23.67;16.60;;;11.30;99.90;;;;;;5088840;28;20048;-73
2021/12/13 11:42:23;;;;;;;23.93;17.10;;;11.40;99.90;;;;;;5088603;28;20040;-73
2021/12/13 11:45:06;;;;;;;22.50;16.63;;;11.40;99.90;;;;;;5089029;28;20052;-73
2021/12/13 11:48:01;;;;;;;21.87;16.70;;;11.40;99.90;;;;;;5088870;28;20180;-73
2021/12/13 11:50:58;;;;;;;23.20;17.00;;;11.40;99.90;;;;;;5089279;28;20826;-73
2021/12/13 11:53:35;;;;;;;20.67;17.03;;;11.40;99.90;;;;;;5088932;28;20143;-73
2021/12/13 12:02:52;;;;;;;21.60;15.13;;;11.40;99.90;;;;;;5121161;27;20390;-72
2021/12/13 12:05:52;;;;;;;22.00;15.33;;;11.40;99.90;;;;;;5124505;28;20075;-72
2021/12/13 12:08:46;;;;;;;23.00;16.70;;;11.40;99.90;;;;;;5115515;28;20639;-75
2021/12/13 12:11:39;;;;;;;24.23;16.23;;;11.40;99.90;;;;;;5120035;28;20114;-80
2021/12/13 12:14:10;;;;;;;22.70;20.30;;;11.40;99.90;;;;;;5129070;28;20051;-80
2021/12/13 12:16:42;;;;;;;22.48;15.85;;;11.40;99.90;;;;;;5122540;27;20043;-77
2021/12/13 12:19:14;;;;;;;19.13;15.97;;;11.50;99.90;;;;;;5113586;28;20044;-71
2021/12/13 12:21:44;;;;;;;21.50;15.80;;;11.50;99.90;;;;;;5122627;28;20055;-74
2021/12/13 12:24:23;;;;;;;21.00;15.27;;;11.50;99.90;;;;;;5126209;28;20130;-72
2021/12/13 12:26:55;;;;;;;22.60;16.47;;;11.50;99.90;;;;;;5128823;27;20039;-71
2021/12/13 12:29:26;;;;;;;19.60;15.85;;;11.60;99.90;;;;;;5127771;28;20423;-72
2021/12/13 12:32:00;;;;;;;21.05;16.08;;;11.60;99.90;;;;;;5126868;27;20084;-72
2021/12/13 12:34:26;;;;;;;20.57;16.67;;;11.70;99.90;;;;;;5128815;27;20118;-73
2021/12/13 12:36:57;;;;;;;32.43;18.03;;;11.70;99.90;;;;;;5127591;27;20459;-74
2021/12/13 12:39:38;;;;;;;36.30;19.80;;;11.70;99.90;;;;;;5128051;28;20047;-73
2021/12/13 12:42:29;;;;;;;27.13;19.17;;;11.70;99.90;;;;;;5128733;27;20062;-74
2021/12/13 12:44:54;;;;;;;23.17;16.13;;;11.70;99.90;;;;;;5120933;28;20047;-76
2021/12/13 12:47:35;;;;;;;21.90;16.90;;;11.70;99.90;;;;;;5127718;28;20050;-74
2021/12/13 12:50:13;;;;;;;19.23;16.70;;;11.70;99.90;;;;;;5126462;28;20501;-74
2021/12/13 12:52:55;;;;;;;24.70;17.83;;;11.70;99.90;;;;;;5125760;28;20043;-73
2021/12/13 12:55:31;;;;;;;23.90;19.33;;;11.70;99.90;;;;;;5127164;28;20366;-74
2021/12/13 12:57:58;;;;;;;20.60;17.23;;;11.60;99.90;;;;;;5126840;28;20047;-73
2021/12/13 13:00:27;;;;;;;22.53;17.40;;;11.60;99.90;;;;;;5125628;27;20079;-76
2021/12/13 13:02:53;;;;;;;20.43;18.23;;;11.60;99.90;;;;;;5128624;27;20112;-75
2021/12/13 13:05:21;;;;;;;23.23;17.40;;;11.60;99.90;;;;;;5128070;27;20475;-78
2021/12/13 13:07:51;;;;;;;27.70;19.63;;;11.60;99.90;;;;;;5127014;27;20047;-75
2021/12/13 13:13:08;;;;;;;27.98;19.52;;;11.60;99.90;;;;;;5118618;27;20055;-74
2021/12/13 13:15:46;;;;;;;25.57;18.87;;;11.50;99.90;;;;;;5113259;28;20084;-75
2021/12/13 13:18:32;;;;;;;28.77;20.70;;;11.50;99.90;;;;;;5114288;28;20115;-76
2021/12/13 13:21:02;;;;;;;23.93;20.00;;;11.50;99.90;;;;;;5113177;28;20043;-78
2021/12/13 13:23:47;;;;;;;28.47;20.13;;;11.40;99.90;;;;;;5114399;28;20048;-76
2021/12/13 13:26:14;;;;;;;24.67;19.00;;;11.40;99.90;;;;;;5113116;28;20055;-76
2021/12/13 13:28:53;;;;;;;26.50;19.80;;;11.30;99.90;;;;;;5113147;28;20392;-77
2021/12/13 13:31:37;;;;;;;27.73;21.57;;;11.30;99.90;;;;;;5114097;28;20475;-79
2021/12/13 13:34:07;;;;;;;27.23;24.07;;;11.30;99.90;;;;;;5116454;28;20047;-78
2021/12/13 13:36:45;;;;;;;30.13;21.63;;;11.20;99.90;;;;;;5112195;28;20039;-78
2021/12/13 13:39:33;;;;;;;26.83;19.70;;;11.20;99.90;;;;;;5113881;28;20091;-76
2021/12/13 13:42:07;;;;;;;27.77;19.47;;;11.20;99.90;;;;;;5113560;28;20052;-72
2021/12/13 13:44:40;;;;;;;31.57;26.37;;;11.20;99.90;;;;;;5113932;28;20522;-76
2021/12/13 13:47:11;;;;;;;27.73;20.53;;;11.20;99.90;;;;;;5113758;28;20098;-75
2021/12/13 13:49:38;;;;;;;27.38;21.10;;;11.20;99.90;;;;;;5113868;28;20442;-78
2021/12/13 13:52:13;;;;;;;28.33;21.37;;;11.20;99.90;;;;;;5112940;28;20063;-76
2021/12/13 13:54:39;;;;;;;30.10;22.07;;;11.20;99.90;;;;;;5112383;28;20044;-75
2021/12/13 13:57:12;;;;;;;29.10;20.63;;;11.20;99.90;;;;;;5146243;27;20441;-74
2021/12/13 13:59:43;;;;;;;28.93;21.23;;;11.20;99.90;;;;;;5112255;28;20376;-76
2021/12/13 14:02:11;;;;;;;27.87;18.47;;;11.20;99.90;;;;;;5113488;28;20123;-76
2021/12/13 14:04:40;;;;;;;31.63;27.30;;;11.20;99.90;;;;;;5113602;28;20464;-77
2021/12/13 14:07:18;;;;;;;25.07;18.30;;;11.20;99.90;;;;;;5113960;28;20055;-76
2021/12/13 14:09:48;;;;;;;27.13;19.40;;;11.30;99.90;;;;;;5113156;28;20418;-79
2021/12/13 14:12:42;;;;;;;29.03;21.13;;;11.20;99.90;;;;;;5114944;28;20051;-78
2021/12/13 14:15:19;;;;;;;27.13;19.77;;;11.20;99.90;;;;;;5113099;28;20100;-76
2021/12/13 14:17:52;;;;;;;27.57;22.67;;;11.20;99.90;;;;;;5112032;28;20407;-74
2021/12/13 14:20:47;;;;;;;29.27;23.13;;;11.20;99.90;;;;;;5111505;28;20050;-75
2021/12/13 14:23:13;;;;;;;26.90;20.63;;;11.20;99.90;;;;;;5113696;28;20101;-77
2021/12/13 14:25:58;;;;;;;27.07;20.70;;;11.20;99.90;;;;;;5111454;28;20119;-75
2021/12/13 14:28:35;;;;;;;30.33;22.90;;;11.20;99.90;;;;;;5112843;28;20640;-76
2021/12/13 14:31:09;;;;;;;29.70;22.30;;;11.20;99.90;;;;;;5111155;28;20048;-77
2021/12/13 14:33:39;;;;;;;30.60;22.50;;;11.20;99.90;;;;;;5113222;27;20031;-74
2021/12/13 14:36:25;;;;;;;28.97;24.10;;;11.10;99.90;;;;;;5113001;28;20092;-75
2021/12/13 14:39:14;;;;;;;29.00;21.47;;;11.20;99.90;;;;;;5144897;27;20036;-76
2021/12/13 14:41:49;;;;;;;29.47;20.00;;;11.20;99.90;;;;;;5110437;28;20321;-68
2021/12/13 14:44:23;;;;;;;28.13;20.40;;;11.10;99.90;;;;;;5112686;28;20059;-70
2021/12/13 14:46:57;;;;;;;29.37;19.87;;;11.20;99.90;;;;;;5111867;27;20063;-73
2021/12/13 14:49:29;;;;;;;28.20;21.30;;;11.10;99.90;;;;;;5110698;28;20067;-70
2021/12/13 14:52:06;;;;;;;26.70;20.25;;;11.10;99.90;;;;;;5111543;27;20054;-70
2021/12/13 14:54:34;;;;;;;25.67;18.97;;;11.10;99.90;;;;;;5111961;28;20055;-69
2021/12/13 14:57:04;;;;;;;26.23;19.70;;;11.10;99.90;;;;;;5112073;28;20062;-68
2021/12/13 14:59:34;;;;;;;25.30;19.13;;;11.10;99.90;;;;;;5109664;28;20377;-70
2021/12/13 15:02:03;;;;;;;28.90;20.03;;;11.10;99.90;;;;;;5112177;28;20097;-68
2021/12/13 15:04:33;;;;;;;26.17;20.87;;;11.10;99.90;;;;;;5111809;28;20048;-70
2021/12/13 15:07:07;;;;;;;25.37;20.43;;;11.10;99.90;;;;;;5111798;28;20043;-67
2021/12/13 15:09:50;;;;;;;26.50;20.03;;;11.10;99.90;;;;;;5111862;28;20047;-66
2021/12/13 15:12:23;;;;;;;28.03;21.10;;;11.10;99.90;;;;;;5112128;28;20499;-67
2021/12/13 15:15:01;;;;;;;24.57;18.93;;;11.10;99.90;;;;;;5111866;28;20137;-66
2021/12/13 15:17:31;;;;;;;25.63;19.40;;;11.10;99.90;;;;;;5110471;28;20055;-67
2021/12/13 15:20:05;;;;;;;25.10;18.93;;;11.10;99.90;;;;;;5109367;28;20044;-67
2021/12/13 19:06:47;;;;;;;26.23;19.60;;;9.60;99.90;;;;;;5099964;27;20350;-70
2021/12/13 19:09:18;;;;;;;29.07;20.53;;;9.50;99.90;;;;;;5106153;28;20051;-70
2021/12/13 19:12:10;;;;;;;27.07;20.53;;;9.50;99.90;;;;;;5115693;28;20045;-68
2021/12/13 19:15:09;;;;;;;25.52;19.35;;;9.60;99.90;;;;;;5113443;28;20403;-71
2021/12/13 19:17:47;;;;;;;26.40;19.37;;;9.60;99.90;;;;;;5113649;28;20142;-69
2021/12/13 19:20:31;;;;;;;27.87;23.60;;;9.60;99.90;;;;;;5115097;28;20051;-71
2021/12/13 19:22:59;;;;;;;25.77;19.10;;;9.60;99.90;;;;;;5112898;27;20488;-70
2021/12/13 19:25:25;;;;;;;24.33;19.43;;;9.70;99.90;;;;;;5103615;28;20108;-69
2021/12/13 19:27:59;;;;;;;21.67;18.23;;;9.70;99.90;;;;;;5103340;28;20123;-71
2021/12/13 19:30:39;;;;;;;24.97;19.80;;;9.80;99.90;;;;;;5103589;28;20056;-71
2021/12/13 19:33:23;;;;;;;22.43;19.00;;;9.80;99.90;;;;;;5102457;28;20070;-72
2021/12/13 19:36:06;;;;;;;27.27;20.17;;;9.90;99.90;;;;;;5103236;28;20089;-70
2021/12/13 19:38:38;;;;;;;24.73;19.20;;;9.90;99.90;;;;;;5103447;28;20055;-73
2021/12/13 19:41:37;;;;;;;22.90;17.75;;;10.00;99.90;;;;;;5104033;28;20179;-70
2021/12/13 19:44:15;;;;;;;22.33;18.03;;;10.00;99.90;;;;;;5081908;28;20055;-71
2021/12/13 19:46:48;;;;;;;22.50;17.43;;;10.00;99.90;;;;;;5103004;28;20052;-72
2021/12/13 19:49:23;;;;;;;23.77;20.17;;;10.00;99.90;;;;;;5102510;28;20044;-72
2021/12/13 19:52:05;;;;;;;27.37;19.37;;;10.00;99.90;;;;;;5112903;28;20342;-69
2021/12/13 19:54:42;;;;;;;24.27;19.83;;;10.00;99.90;;;;;;5110097;28;20157;-70
2021/12/13 19:57:19;;;;;;;23.37;18.70;;;10.00;99.90;;;;;;5123101;28;20035;-70
2021/12/13 19:59:49;;;;;;;25.20;20.23;;;10.00;99.90;;;;;;5120079;28;20035;-72
